Time;durP1;ratioP1;P1;durP2;ratioP2;P2;SDS_P1;SDS_P2;PMS_P1;PMS_P2;Temp;Humidity;BMP_temperature;BMP_pressure;BME280_temperature;BME280_humidity;BME280_pressure;Samples;Min_cycle;Max_cycle;Signal;HPM_P1;HPM_P2
2023/07/27 00:01:06;;;;;;;11.00;9.75;;;;;;;-145.63;62.37;38781.75;5054157;28;20089;-67
2023/07/27 00:03:31;;;;;;;11.52;10.00;;;;;;;-145.63;62.31;38748.50;5055858;28;20053;-66
2023/07/27 00:05:57;;;;;;;11.25;10.15;;;;;;;-145.63;62.04;38781.75;5054313;28;20124;-66
2023/07/27 00:08:23;;;;;;;11.50;9.60;;;;;;;-145.63;62.35;38742.66;5055928;28;20119;-67
2023/07/27 00:10:48;;;;;;;15.20;9.90;;;;;;;-145.63;62.23;38781.75;5056027;28;20020;-67
2023/07/27 00:13:16;;;;;;;10.98;9.90;;;;;;;-145.63;62.31;38768.06;5054641;28;20037;-66
2023/07/27 00:15:42;;;;;;;11.68;9.90;;;;;;;-145.63;62.39;38779.81;5055991;28;20025;-67
2023/07/27 00:18:07;;;;;;;13.90;9.80;;;;;;;-145.63;62.23;38752.44;5055095;28;20092;-66
2023/07/27 00:20:33;;;;;;;11.35;9.50;;;;;;;-145.63;62.31;38758.28;5055894;28;20080;-67
2023/07/27 00:22:59;;;;;;;13.50;9.48;;;;;;;-145.63;62.07;38805.22;5054286;28;20040;-68
2023/07/27 00:25:24;;;;;;;12.48;9.90;;;;;;;-145.63;62.14;38760.25;5053532;28;20032;-66
2023/07/27 00:27:50;;;;;;;13.80;11.38;;;;;;;-145.63;62.27;38758.28;5055568;28;20036;-66
2023/07/27 00:30:16;;;;;;;12.30;9.63;;;;;;;-145.63;62.17;38785.66;5054890;28;20063;-66
2023/07/27 00:32:41;;;;;;;10.80;9.70;;;;;;;-145.63;61.99;38773.94;5056471;28;20179;-66
2023/07/27 00:35:07;;;;;;;9.15;8.35;;;;;;;-145.63;62.19;38807.19;5053377;28;20067;-66
2023/07/27 00:37:33;;;;;;;11.90;10.60;;;;;;;-145.63;62.15;38805.22;5055803;28;20044;-67
2023/07/27 00:39:59;;;;;;;11.70;9.52;;;;;;;-145.63;61.77;39047.72;5054019;28;20195;-68
2023/07/27 00:42:24;;;;;;;11.55;10.32;;;;;;;-145.63;61.90;38805.22;5053522;28;20048;-67
2023/07/27 00:44:50;;;;;;;11.95;10.50;;;;;;;-145.63;61.96;38793.50;5053760;28;20083;-67
2023/07/27 00:47:16;;;;;;;11.80;10.00;;;;;;;-145.63;61.87;38783.72;5055272;28;20392;-66
2023/07/27 00:49:42;;;;;;;13.25;10.70;;;;;;;-145.63;61.95;38805.22;5055761;28;20374;-66
2023/07/27 00:52:08;;;;;;;11.02;8.70;;;;;;;-145.63;61.82;38799.34;5054199;28;20040;-66
2023/07/27 00:54:34;;;;;;;13.25;10.30;;;;;;;-145.63;61.81;38785.66;5054499;28;20033;-66
2023/07/27 00:57:01;;;;;;;11.82;10.60;;;;;;;-145.63;61.86;38799.34;5054345;28;20036;-66
2023/07/27 00:59:27;;;;;;;10.43;9.43;;;;;;;-145.63;62.06;38805.22;5054624;28;20052;-67
2023/07/27 01:01:54;;;;;;;14.02;11.38;;;;;;;-145.63;61.84;38771.97;5054084;28;20043;-68
2023/07/27 01:04:20;;;;;;;10.70;9.63;;;;;;;-145.63;61.88;38816.97;5053629;28;20103;-68
2023/07/27 01:06:46;;;;;;;11.45;10.25;;;;;;;-145.63;62.05;38824.78;5054533;28;20176;-68
2023/07/27 01:09:12;;;;;;;11.93;10.57;;;;;;;-145.63;62.02;38820.88;5054022;28;20023;-67
2023/07/27 01:11:53;;;;;;;12.68;10.38;;;;;;;-145.63;62.00;38797.41;5053839;28;20214;-66
2023/07/27 01:14:24;;;;;;;13.63;10.50;;;;;;;-145.63;61.79;38807.19;5052940;28;20028;-66
2023/07/27 01:17:03;;;;;;;11.88;10.70;;;;;;;-145.63;62.02;38783.72;5054464;28;20033;-66
2023/07/27 01:19:50;;;;;;;11.43;10.27;;;;;;;-145.63;62.00;38809.13;5053806;28;20029;-67
2023/07/27 01:22:31;;;;;;;11.48;10.27;;;;;;;-145.63;62.01;38805.22;5053436;28;20052;-65
2023/07/27 01:25:37;;;;;;;11.63;10.50;;;;;;;-145.63;62.06;38816.97;5054941;28;20090;-66
2023/07/27 01:28:26;;;;;;;12.60;11.38;;;;;;;-145.63;61.94;38803.28;5053360;28;20036;-67
2023/07/27 01:31:12;;;;;;;10.98;9.98;;;;;;;-145.63;62.15;38816.97;5057138;28;20028;-67
2023/07/27 01:33:44;;;;;;;14.30;10.85;;;;;;;-145.63;61.86;38883.44;5052667;28;20087;-66
2023/07/27 01:36:34;;;;;;;13.40;11.38;;;;;;;-145.63;62.13;38815.00;5053966;28;20048;-66
2023/07/27 01:39:04;;;;;;;13.93;10.75;;;;;;;-145.63;62.00;38809.13;5052879;28;20083;-65
2023/07/27 01:41:31;;;;;;;17.25;12.07;;;;;;;-145.63;61.88;38832.59;5054521;28;20013;-66
2023/07/27 01:43:59;;;;;;;12.88;11.57;;;;;;;-145.63;62.13;38818.91;5058978;28;20052;-67
2023/07/27 01:46:26;;;;;;;12.90;11.52;;;;;;;-145.63;62.02;38824.78;5043769;28;20034;-67
2023/07/27 01:48:54;;;;;;;16.55;14.50;;;;;;;-145.63;62.00;38830.66;5042560;28;20033;-67
2023/07/27 01:51:22;;;;;;;13.77;12.23;;;;;;;-145.63;62.28;38836.50;5059596;28;20029;-67
2023/07/27 01:53:48;;;;;;;16.13;12.25;;;;;;;-145.63;62.58;38805.22;5057984;28;20062;-67
2023/07/27 01:56:15;;;;;;;14.07;11.45;;;;;;;-145.63;62.37;38813.03;5056868;28;20185;-68
2023/07/27 01:58:41;;;;;;;14.40;12.40;;;;;;;-145.63;62.46;38811.09;5045821;28;20253;-66
2023/07/27 02:01:07;;;;;;;14.25;11.88;;;;;;;-145.63;62.42;38863.88;5063538;28;20211;-66
2023/07/27 02:03:33;;;;;;;13.75;11.73;;;;;;;-145.63;62.49;38873.66;5045857;28;20041;-67
2023/07/27 02:06:00;;;;;;;13.00;11.70;;;;;;;-145.63;62.52;38858.03;5056392;28;20040;-67
2023/07/27 02:08:26;;;;;;;13.20;11.80;;;;;;;-145.63;62.48;38818.91;5054806;28;20029;-66
2023/07/27 02:10:59;;;;;;;13.63;12.15;;;;;;;-145.63;62.33;38809.13;5047199;28;20040;-67
2023/07/27 02:13:43;;;;;;;12.60;11.30;;;;;;;-145.63;62.31;38818.91;5063358;28;20024;-66
2023/07/27 02:16:35;;;;;;;15.20;12.70;;;;;;;-145.63;62.72;38840.44;5043180;28;20029;-66
2023/07/27 02:19:04;;;;;;;13.43;12.00;;;;;;;-145.63;62.63;38822.81;5042903;28;20033;-66
2023/07/27 02:21:31;;;;;;;12.68;11.38;;;;;;;-145.63;62.50;38813.03;5060201;28;20028;-67
2023/07/27 02:23:59;;;;;;;12.70;11.48;;;;;;;-145.63;62.33;38842.38;5050501;28;20052;-67
2023/07/27 02:26:25;;;;;;;12.93;11.57;;;;;;;-145.63;62.42;38787.63;5051372;28;20096;-67
2023/07/27 02:28:51;;;;;;;13.60;12.25;;;;;;;-145.63;62.59;38809.13;5059666;28;20033;-66
2023/07/27 02:31:17;;;;;;;13.45;12.10;;;;;;;-145.63;62.41;38797.41;5052539;28;20029;-67
2023/07/27 02:33:42;;;;;;;14.65;11.65;;;;;;;-145.63;62.52;38813.03;5063104;28;20252;-67
2023/07/27 02:36:08;;;;;;;13.65;11.35;;;;;;;-145.63;62.48;38797.41;5048987;28;20340;-67
2023/07/27 02:38:34;;;;;;;13.70;12.00;;;;;;;-145.63;62.52;38789.59;5052682;28;20049;-66
2023/07/27 02:40:59;;;;;;;12.95;11.63;;;;;;;-145.63;62.42;38773.94;5051928;28;20029;-68
2023/07/27 02:43:25;;;;;;;13.77;12.20;;;;;;;-145.63;62.49;38820.88;5044604;28;20025;-67
2023/07/27 02:45:59;;;;;;;15.93;13.02;;;;;;;-145.63;62.72;38859.97;5047001;28;20029;-67
2023/07/27 02:48:26;;;;;;;15.65;12.20;;;;;;;-145.63;62.77;38809.13;5063150;28;20294;-66
2023/07/27 02:50:52;;;;;;;13.77;12.40;;;;;;;-145.63;62.76;38787.63;5055408;28;20097;-68
2023/07/27 02:53:18;;;;;;;15.55;12.93;;;;;;;-145.63;62.44;38789.59;5053432;28;20025;-67
2023/07/27 02:56:00;;;;;;;15.60;11.68;;;;;;;-145.63;62.57;38811.09;5064735;28;20075;-66
2023/07/27 02:58:26;;;;;;;;;;;;;;;-145.63;62.70;38801.31;5047508;28;20028;-67
2023/07/27 03:00:53;;;;;;;15.02;12.50;;;;;;;-145.63;62.91;38809.13;5047059;28;19944;-67
2023/07/27 03:03:19;;;;;;;17.42;14.15;;;;;;;-145.63;62.57;38787.63;5062022;28;20108;-68
2023/07/27 03:05:45;;;;;;;17.00;14.20;;;;;;;-145.63;62.39;38824.78;5066553;28;20041;-67
2023/07/27 03:08:10;;;;;;;14.70;12.75;;;;;;;-145.63;62.42;38785.66;5060585;28;20033;-67
2023/07/27 03:10:36;;;;;;;14.93;13.35;;;;;;;-145.63;62.49;38785.66;5046362;28;20025;-68
2023/07/27 03:13:02;;;;;;;15.43;13.93;;;;;;;-145.63;62.27;38771.97;5046491;28;20025;-67
2023/07/27 03:15:27;;;;;;;20.27;15.15;;;;;;;-145.63;62.12;38791.53;5062683;28;20221;-68
2023/07/27 03:17:53;;;;;;;14.57;13.18;;;;;;;-145.63;62.14;38768.06;5054977;28;20207;-67
2023/07/27 03:20:19;;;;;;;16.38;14.05;;;;;;;-145.63;62.06;38775.91;5052694;28;20029;-67
2023/07/27 03:22:44;;;;;;;17.05;15.25;;;;;;;-145.63;61.88;38773.94;5064401;28;20024;-67
2023/07/27 03:25:10;;;;;;;15.50;13.90;;;;;;;-145.63;61.96;38777.84;5056278;28;20306;-68
2023/07/27 03:27:36;;;;;;;16.33;14.40;;;;;;;-145.63;62.06;38797.41;5065236;28;20028;-68
2023/07/27 03:30:03;;;;;;;15.63;14.02;;;;;;;-145.63;61.92;38791.53;5065939;28;20025;-67
2023/07/27 03:32:30;;;;;;;18.67;14.77;;;;;;;-145.63;61.63;38770.03;5066422;28;20025;-67
2023/07/27 03:34:56;;;;;;;16.80;15.10;;;;;;;-145.63;61.72;38730.91;5062739;28;20025;-66
2023/07/27 03:37:22;;;;;;;15.45;13.93;;;;;;;-145.63;62.35;38723.09;5046342;28;20075;-67
2023/07/27 03:39:47;;;;;;;17.70;15.10;;;;;;;-145.63;62.42;38785.66;5064988;28;20029;-68
2023/07/27 03:42:13;;;;;;;15.68;13.85;;;;;;;-145.63;62.37;38754.38;5061477;28;20028;-68
2023/07/27 03:44:38;;;;;;;15.45;13.85;;;;;;;-145.63;62.28;38785.66;5055628;28;20056;-68
2023/07/27 03:47:04;;;;;;;17.00;14.77;;;;;;;-145.63;62.35;38758.28;5050418;28;20217;-66
2023/07/27 03:49:30;;;;;;;15.63;13.93;;;;;;;-145.63;62.04;38738.75;5066031;28;20040;-68
2023/07/27 03:51:55;;;;;;;16.60;14.57;;;;;;;-145.63;62.05;38771.97;5052699;28;20033;-68
2023/07/27 03:54:21;;;;;;;16.92;13.88;;;;;;;-145.63;61.90;38762.22;5049790;28;20037;-68
2023/07/27 03:56:47;;;;;;;15.00;13.07;;;;;;;-145.63;62.06;38746.56;5055619;28;20213;-67
2023/07/27 03:59:12;;;;;;;14.68;13.23;;;;;;;-145.63;61.43;38768.06;5060140;28;20041;-67
2023/07/27 04:01:38;;;;;;;15.00;13.52;;;;;;;-145.63;61.46;38779.81;5046243;28;20206;-68
2023/07/27 04:04:04;;;;;;;14.57;13.00;;;;;;;-145.63;61.75;38760.25;5065509;28;20327;-67
2023/07/27 04:06:29;;;;;;;14.63;13.18;;;;;;;-145.63;61.56;38764.16;5049407;28;20045;-67
2023/07/27 04:08:55;;;;;;;15.98;13.38;;;;;;;-145.63;61.17;38750.47;5056682;28;20040;-68
2023/07/27 04:11:21;;;;;;;16.25;14.55;;;;;;;-145.63;61.21;38703.53;5058931;28;20033;-68
2023/07/27 04:13:46;;;;;;;14.40;13.02;;;;;;;-145.63;60.62;38738.75;5047109;28;20029;-68
2023/07/27 04:16:12;;;;;;;13.90;12.57;;;;;;;-145.63;60.57;38703.53;5064853;28;20048;-68
2023/07/27 04:18:38;;;;;;;16.27;14.07;;;;;;;-145.63;60.54;38750.47;5062678;28;20031;-68
2023/07/27 04:21:03;;;;;;;16.05;13.00;;;;;;;-145.63;60.67;38742.66;5052870;28;20053;-67
2023/07/27 04:23:29;;;;;;;17.08;15.18;;;;;;;-145.63;61.21;38766.13;5064274;28;20054;-67
2023/07/27 04:25:55;;;;;;;17.23;12.85;;;;;;;-145.63;60.94;38848.25;5063735;28;20037;-66
2023/07/27 04:28:21;;;;;;;14.70;13.20;;;;;;;-145.63;60.93;38695.72;5064970;28;20084;-66
2023/07/27 04:30:46;;;;;;;13.68;12.30;;;;;;;-145.63;61.15;38717.22;5049185;28;20035;-67
2023/07/27 04:33:12;;;;;;;17.52;14.75;;;;;;;-145.63;61.76;38738.75;5058587;28;20263;-67
2023/07/27 04:35:38;;;;;;;13.10;11.77;;;;;;;-145.63;61.54;38719.19;5064028;28;20044;-67
2023/07/27 04:38:03;;;;;;;14.85;12.63;;;;;;;-145.63;61.02;38762.22;5064778;28;20028;-67
2023/07/27 04:40:29;;;;;;;17.02;14.77;;;;;;;-145.63;61.11;38709.41;5059357;28;20368;-67
2023/07/27 04:42:55;;;;;;;17.00;13.57;;;;;;;-145.63;61.22;38738.75;5044641;28;20226;-68
2023/07/27 04:45:20;;;;;;;17.38;13.55;;;;;;;-145.63;61.48;38758.28;5058846;28;20325;-68
2023/07/27 04:47:46;;;;;;;16.75;14.38;;;;;;;-145.63;61.04;38738.75;5060551;28;20071;-69
2023/07/27 04:50:12;;;;;;;15.38;13.60;;;;;;;-145.63;61.33;38723.09;5057988;28;20203;-68
2023/07/27 04:52:37;;;;;;;13.85;12.45;;;;;;;-145.63;61.45;38687.91;5044728;28;20022;-68
2023/07/27 04:55:04;;;;;;;20.17;14.60;;;;;;;-145.63;61.60;38707.44;5064665;28;20048;-67
2023/07/27 04:57:31;;;;;;;16.92;14.45;;;;;;;-145.63;61.15;38699.63;5048658;28;20063;-67
2023/07/27 04:59:56;;;;;;;20.55;14.82;;;;;;;-145.63;61.02;38717.22;5055439;28;20322;-66
2023/07/27 05:02:22;;;;;;;16.30;14.40;;;;;;;-145.63;60.05;38693.75;5058060;28;20087;-67
2023/07/27 05:04:50;;;;;;;17.27;13.55;;;;;;;-145.63;60.38;38723.09;5045843;28;20029;-68
2023/07/27 05:07:16;;;;;;;15.77;14.02;;;;;;;-145.63;60.26;38701.59;5063869;28;20025;-68
2023/07/27 05:09:42;;;;;;;17.35;14.57;;;;;;;-145.63;60.11;38691.81;5047187;28;20180;-67
2023/07/27 05:12:07;;;;;;;15.82;13.60;;;;;;;-145.63;60.27;38689.84;5056330;28;20033;-67
2023/07/27 05:14:33;;;;;;;15.77;13.85;;;;;;;-145.63;60.28;38648.78;5056503;28;20393;-66
2023/07/27 05:17:01;;;;;;;14.95;13.40;;;;;;;-145.63;60.03;38695.72;5044262;28;20045;-67
2023/07/27 05:19:26;;;;;;;15.18;13.43;;;;;;;-145.63;59.39;38619.47;5043988;28;20211;-68
2023/07/27 05:21:52;;;;;;;20.45;15.20;;;;;;;-145.63;58.61;38685.94;5062710;28;20500;-67
2023/07/27 05:24:18;;;;;;;19.42;14.23;;;;;;;-145.63;58.66;38672.25;5048884;28;20482;-67
2023/07/27 05:26:43;;;;;;;17.15;13.80;;;;;;;-145.63;58.89;38660.53;5052640;28;20056;-68
2023/07/27 05:29:09;;;;;;;16.35;14.15;;;;;;;-145.63;58.74;38644.88;5059390;28;20063;-66
2023/07/27 05:31:35;;;;;;;16.00;14.23;;;;;;;-145.63;59.05;38640.97;5055604;28;20056;-67
2023/07/27 05:34:00;;;;;;;21.30;14.52;;;;;;;-145.63;59.28;38639.00;5063863;28;20020;-66
2023/07/27 05:36:26;;;;;;;16.25;14.55;;;;;;;-145.63;59.75;38623.38;5048915;28;20029;-67
2023/07/27 05:38:52;;;;;;;19.63;14.73;;;;;;;-145.63;60.01;38609.69;5053863;28;20032;-67
2023/07/27 05:41:17;;;;;;;19.75;16.00;;;;;;;-145.63;60.47;38644.88;5058140;28;20029;-67
2023/07/27 05:43:43;;;;;;;19.48;15.80;;;;;;;-145.63;59.90;38646.84;5063845;28;20021;-66
2023/07/27 05:46:09;;;;;;;15.18;13.25;;;;;;;-145.63;59.40;38623.38;5063360;28;20025;-67
2023/07/27 05:48:34;;;;;;;18.15;15.07;;;;;;;-145.63;59.30;38637.06;5047733;28;20135;-68
2023/07/27 05:51:00;;;;;;;16.23;14.45;;;;;;;-145.63;59.00;38623.38;5043841;28;20063;-67
2023/07/27 05:53:26;;;;;;;19.30;15.13;;;;;;;-145.63;59.68;38640.97;5049514;28;20037;-68
2023/07/27 05:55:52;;;;;;;19.77;15.75;;;;;;;-145.63;59.53;38594.03;5061982;28;20029;-67
2023/07/27 05:58:17;;;;;;;16.52;13.90;;;;;;;-145.63;58.77;38605.78;5043120;28;20025;-67
2023/07/27 06:00:43;;;;;;;14.80;13.18;;;;;;;-145.63;57.65;38646.84;5060256;28;20025;-67
2023/07/27 06:03:09;;;;;;;16.48;14.02;;;;;;;-145.63;58.37;38627.28;5050010;28;20045;-67
2023/07/27 06:05:35;;;;;;;15.20;13.38;;;;;;;-145.63;57.99;38611.63;5050709;28;20298;-67
2023/07/27 06:08:01;;;;;;;16.25;12.50;;;;;;;-145.63;57.93;38570.56;5054339;28;20028;-68
2023/07/27 06:10:27;;;;;;;18.20;14.57;;;;;;;-145.63;57.97;38560.78;5060741;28;20233;-68
2023/07/27 06:12:53;;;;;;;14.27;12.88;;;;;;;-145.63;58.43;38525.59;5061697;28;20089;-67
2023/07/27 06:15:18;;;;;;;14.85;13.23;;;;;;;-145.63;56.28;38552.97;5062581;28;20033;-67
2023/07/27 06:17:44;;;;;;;13.18;11.55;;;;;;;-145.63;55.37;38537.34;5062398;28;20021;-67
2023/07/27 06:20:10;;;;;;;19.05;12.10;;;;;;;-145.63;57.59;38500.19;5059228;28;20025;-68
2023/07/27 06:22:35;;;;;;;19.38;11.27;;;;;;;-145.63;56.28;38476.72;5043063;28;20168;-67
2023/07/27 06:25:01;;;;;;;13.07;11.02;;;;;;;-145.63;56.13;38492.34;5061865;28;20025;-68
2023/07/27 06:27:29;;;;;;;12.07;10.77;;;;;;;-145.63;54.65;38464.97;5063027;28;20032;-69
2023/07/27 06:29:55;;;;;;;10.30;9.30;;;;;;;-145.63;53.19;38476.72;5055480;28;20032;-68
2023/07/27 06:32:21;;;;;;;11.93;10.60;;;;;;;-145.63;52.45;38484.53;5062525;28;20025;-66
2023/07/27 06:34:46;;;;;;;9.85;8.73;;;;;;;-145.63;53.35;38457.16;5062902;28;20081;-67
2023/07/27 06:37:12;;;;;;;10.38;8.95;;;;;;;-145.63;53.39;38382.88;5062811;28;20225;-69
2023/07/27 06:39:38;;;;;;;11.27;8.80;;;;;;;-145.63;51.52;38386.78;5047269;28;20036;-67
2023/07/27 06:42:04;;;;;;;12.93;9.95;;;;;;;-145.63;51.47;38410.22;5054111;28;20033;-68
2023/07/27 06:44:29;;;;;;;51.33;45.88;;;;;;;-145.63;51.54;38353.53;5051394;28;20074;-68
2023/07/27 06:46:55;;;;;;;11.73;9.85;;;;;;;-145.63;52.25;38390.69;5058662;28;20063;-69
2023/07/27 06:49:21;;;;;;;9.00;8.10;;;;;;;-145.63;51.54;38380.91;5046517;28;20025;-68
2023/07/27 06:51:47;;;;;;;9.38;8.18;;;;;;;-145.63;49.53;38484.53;5045600;28;20214;-68
2023/07/27 06:54:12;;;;;;;10.00;8.07;;;;;;;-145.63;50.13;38398.50;5053444;28;20029;-69
2023/07/27 06:56:38;;;;;;;12.32;8.30;;;;;;;-145.63;51.16;38382.88;5052213;28;20091;-68
2023/07/27 06:59:04;;;;;;;13.65;8.50;;;;;;;-145.63;51.18;38308.56;5043959;28;20094;-69
2023/07/27 07:01:29;;;;;;;9.25;8.27;;;;;;;-145.63;50.62;38414.16;5045866;28;20029;-70
2023/07/27 07:03:55;;;;;;;9.88;8.73;;;;;;;-145.63;50.91;38339.84;5049080;28;20360;-69
2023/07/27 07:06:22;;;;;;;9.32;8.30;;;;;;;-145.63;51.02;38335.94;5055561;28;20020;-69
2023/07/27 07:08:47;;;;;;;9.40;8.48;;;;;;;-145.63;52.05;38302.69;5059157;28;20314;-70
2023/07/27 07:11:13;;;;;;;12.18;7.25;;;;;;;-145.63;50.54;38253.81;5048124;28;20059;-70
2023/07/27 07:13:39;;;;;;;10.75;7.57;;;;;;;-145.63;47.51;38246.00;5050880;28;20085;-69
2023/07/27 07:16:05;;;;;;;11.32;7.57;;;;;;;-145.63;46.52;38244.03;5060096;28;20040;-69
2023/07/27 07:18:31;;;;;;;8.02;7.18;;;;;;;-145.63;46.06;38220.56;5050086;28;20314;-69
2023/07/27 07:20:56;;;;;;;12.10;8.07;;;;;;;-145.63;46.63;38169.75;5047140;28;20029;-67
2023/07/27 07:23:22;;;;;;;8.32;7.15;;;;;;;-145.63;46.62;38218.63;5049771;28;20776;-71
2023/07/27 07:25:48;;;;;;;10.10;7.40;;;;;;;-145.63;45.26;38206.88;5053664;28;20025;-73
2023/07/27 07:28:13;;;;;;;8.00;6.55;;;;;;;-145.63;46.42;38163.88;5049768;28;20034;-72
2023/07/27 07:30:41;;;;;;;7.72;6.80;;;;;;;-145.63;45.72;38247.94;5052779;28;20028;-73
2023/07/27 07:33:07;;;;;;;7.50;6.70;;;;;;;-145.63;44.55;38134.53;5052531;28;20253;-73
2023/07/27 07:35:38;;;;;;;7.63;6.80;;;;;;;-145.63;43.29;38191.25;5055787;28;20028;-72
2023/07/27 07:38:05;;;;;;;8.48;5.88;;;;;;;-145.63;44.27;38150.19;5054354;28;20036;-73
2023/07/27 07:40:32;;;;;;;7.88;5.80;;;;;;;-145.63;44.30;38099.34;5054072;28;20025;-72
2023/07/27 07:42:57;;;;;;;7.15;5.95;;;;;;;-145.63;42.33;38132.59;5053847;28;20075;-73
2023/07/27 07:45:23;;;;;;;5.93;4.57;;;;;;;-145.63;41.47;38118.91;5054302;28;20393;-72
2023/07/27 07:47:49;;;;;;;6.28;5.25;;;;;;;-145.63;41.36;38116.94;5054837;28;20028;-71
2023/07/27 07:50:15;;;;;;;8.65;6.20;;;;;;;-145.63;42.73;38093.50;5053112;28;20025;-73
2023/07/27 07:52:40;;;;;;;7.40;5.57;;;;;;;-145.63;42.66;37962.50;5056486;28;20066;-73
2023/07/27 07:55:07;;;;;;;6.18;5.57;;;;;;;-145.63;43.42;38070.03;5053942;28;20030;-72
2023/07/27 07:57:33;;;;;;;10.27;5.38;;;;;;;-145.63;41.69;38056.34;5054016;28;20029;-74
2023/07/27 07:59:58;;;;;;;8.52;5.18;;;;;;;-145.63;43.08;38011.38;5055930;28;20127;-75
2023/07/27 08:02:24;;;;;;;6.88;5.68;;;;;;;-145.63;40.98;38048.53;5054138;28;20092;-75
2023/07/27 08:04:50;;;;;;;7.22;6.10;;;;;;;-145.63;40.79;38071.97;5053702;28;20278;-74
2023/07/27 08:07:15;;;;;;;6.88;6.18;;;;;;;-145.63;39.98;38079.81;5056723;28;20100;-75
2023/07/27 08:09:41;;;;;;;6.70;4.97;;;;;;;-145.63;42.35;38019.19;5054466;28;20333;-75
2023/07/27 08:12:07;;;;;;;10.57;5.82;;;;;;;-145.63;42.14;38040.69;5056836;28;20025;-74
2023/07/27 08:14:33;;;;;;;9.27;5.32;;;;;;;-145.63;42.86;37999.66;5053567;28;20073;-73
2023/07/27 08:16:59;;;;;;;7.07;5.55;;;;;;;-145.63;43.16;37970.31;5055705;28;20033;-74
2023/07/27 08:19:25;;;;;;;7.22;6.18;;;;;;;-145.63;42.20;38007.47;5055612;28;20087;-73
2023/07/27 08:21:51;;;;;;;9.70;5.68;;;;;;;-145.63;42.92;37970.31;5055226;28;20024;-72
2023/07/27 08:24:17;;;;;;;6.97;6.28;;;;;;;-145.63;41.02;37993.78;5056815;28;20040;-74
2023/07/27 08:26:42;;;;;;;9.13;6.53;;;;;;;-145.63;42.02;37931.22;5051731;28;20025;-75
2023/07/27 08:29:08;;;;;;;6.57;5.57;;;;;;;-145.63;41.23;37927.31;5057870;28;20025;-73
2023/07/27 08:31:34;;;;;;;10.60;6.13;;;;;;;-145.63;41.06;37954.69;5056751;28;20104;-73
2023/07/27 08:34:00;;;;;;;7.00;6.30;;;;;;;-145.63;40.94;37911.66;5054358;28;20290;-74
2023/07/27 08:36:26;;;;;;;8.80;7.22;;;;;;;-145.63;40.42;37950.75;5055796;28;20029;-73
2023/07/27 08:38:51;;;;;;;8.05;6.80;;;;;;;-145.63;41.55;37925.34;5055053;28;20025;-74
2023/07/27 08:41:17;;;;;;;7.97;6.00;;;;;;;-145.63;41.25;37991.81;5056352;28;20035;-73
2023/07/27 08:43:43;;;;;;;8.50;6.05;;;;;;;-145.63;40.28;38030.94;5053812;28;20017;-72
2023/07/27 08:46:10;;;;;;;10.95;7.00;;;;;;;-145.63;40.36;38001.59;5053494;28;20035;-75
2023/07/27 08:48:38;;;;;;;10.90;7.13;;;;;;;-145.63;41.05;38001.59;5054880;28;20071;-72
2023/07/27 08:51:04;;;;;;;8.40;6.75;;;;;;;-145.63;40.92;38052.44;5054529;28;20039;-74
2023/07/27 08:53:30;;;;;;;8.02;6.28;;;;;;;-145.63;41.67;38032.88;5053477;28;20028;-73
2023/07/27 08:55:58;;;;;;;9.35;6.85;;;;;;;-145.63;42.37;38025.06;5055340;28;20098;-72
2023/07/27 08:58:24;;;;;;;8.73;6.25;;;;;;;-145.63;42.21;37984.00;5055748;28;20021;-74
2023/07/27 09:00:50;;;;;;;9.77;6.90;;;;;;;-145.63;42.11;37964.44;5053146;28;20025;-72
2023/07/27 09:03:16;;;;;;;9.20;5.63;;;;;;;-145.63;37.78;37987.91;5054517;28;20227;-72
2023/07/27 09:06:03;;;;;;;6.45;5.35;;;;;;;-145.63;40.51;38001.59;5052694;28;20032;-73
2023/07/27 09:08:29;;;;;;;8.90;5.63;;;;;;;-145.63;39.93;37921.44;5053609;28;20107;-73
2023/07/27 09:11:05;;;;;;;6.68;5.30;;;;;;;-145.63;38.49;37905.81;5052137;28;20021;-73
2023/07/27 09:13:31;;;;;;;9.05;5.90;;;;;;;-145.63;39.47;37856.94;5052716;28;20210;-72
2023/07/27 09:15:57;;;;;;;6.88;5.22;;;;;;;-145.63;39.23;37813.91;5054579;28;20084;-73
2023/07/27 09:18:23;;;;;;;5.43;4.75;;;;;;;-145.63;39.13;37782.63;5053298;28;20028;-74
2023/07/27 09:20:49;;;;;;;8.70;5.47;;;;;;;-145.63;38.13;37790.44;5053701;28;20035;-74
2023/07/27 09:23:21;;;;;;;5.57;4.65;;;;;;;-145.63;38.04;37776.78;5052799;28;20033;-73
2023/07/27 09:25:56;;;;;;;5.60;4.55;;;;;;;-145.63;39.13;37702.47;5054541;28;20023;-74
2023/07/27 09:28:27;;;;;;;9.13;4.82;;;;;;;-145.63;36.97;37718.13;5053078;28;20033;-72
2023/07/27 09:31:01;;;;;;;9.27;5.10;;;;;;;-145.63;36.24;37667.28;5054677;28;20021;-73
2023/07/27 09:33:26;;;;;;;6.82;4.47;;;;;;;-145.63;36.54;37663.38;5053105;28;20033;-74
2023/07/27 09:35:55;;;;;;;4.30;3.90;;;;;;;-145.63;34.94;37551.94;5055263;28;20036;-74
2023/07/27 09:38:28;;;;;;;5.72;4.43;;;;;;;-145.63;35.44;37806.09;5047220;28;20304;-70
2023/07/27 09:40:55;;;;;;;7.72;5.15;;;;;;;-145.63;36.51;37792.41;5042688;28;20246;-70
2023/07/27 09:43:24;;;;;;;5.57;5.07;;;;;;;-145.63;35.74;37808.06;5044040;28;20053;-71
2023/07/27 09:45:58;;;;;;;5.05;4.55;;;;;;;-145.63;36.48;37763.09;5059536;28;20084;-72
2023/07/27 09:48:25;;;;;;;6.20;4.80;;;;;;;-145.63;36.98;37196.19;5061961;28;20021;-70
2023/07/27 09:50:53;;;;;;;8.60;5.15;;;;;;;-145.63;35.96;37780.69;5058311;28;20037;-72
2023/07/27 09:53:21;;;;;;;6.32;5.43;;;;;;;-145.63;35.73;37761.13;5051855;28;20037;-72
2023/07/27 09:55:49;;;;;;;7.68;5.43;;;;;;;-145.63;36.33;37768.94;5050017;28;20230;-71
2023/07/27 09:58:15;;;;;;;6.10;5.25;;;;;;;-145.63;36.17;37747.44;5056058;28;20029;-71
2023/07/27 10:00:41;;;;;;;7.78;5.05;;;;;;;-145.63;34.21;37841.28;5057807;28;20029;-69
2023/07/27 10:03:07;;;;;;;6.40;4.57;;;;;;;-145.63;34.85;37860.84;5053686;28;20052;-70
2023/07/27 10:05:37;;;;;;;5.10;4.45;;;;;;;-145.63;33.99;37847.16;5048112;28;20029;-69
2023/07/27 10:08:04;;;;;;;5.35;4.45;;;;;;;-145.63;35.39;37831.50;5062287;28;20045;-71
2023/07/27 10:10:32;;;;;;;5.20;4.43;;;;;;;-145.63;36.61;37792.41;5043154;28;20021;-71
2023/07/27 10:13:05;;;;;;;7.45;4.85;;;;;;;-145.63;36.14;37800.22;5059085;28;20034;-71
2023/07/27 10:15:31;;;;;;;8.20;4.80;;;;;;;-145.63;34.87;37815.88;5063009;28;20021;-70
2023/07/27 10:17:58;;;;;;;5.30;4.80;;;;;;;-145.63;35.18;37759.19;5062953;28;20047;-71
2023/07/27 10:20:35;;;;;;;7.72;4.57;;;;;;;-145.63;37.42;37710.31;5059271;28;20029;-71
2023/07/27 10:23:10;;;;;;;9.05;6.32;;;;;;;-145.63;35.82;37749.41;5043519;28;20139;-71
2023/07/27 10:26:00;;;;;;;7.82;5.47;;;;;;;-145.63;35.74;37722.03;5062900;28;20033;-72
2023/07/27 10:28:47;;;;;;;8.82;5.72;;;;;;;-145.63;36.63;37702.47;5042600;28;20076;-72
2023/07/27 10:31:20;;;;;;;6.88;5.68;;;;;;;-145.63;36.26;37729.84;5061204;28;20045;-70
2023/07/27 10:34:08;;;;;;;7.30;5.85;;;;;;;-145.63;36.50;37772.84;5062765;28;20039;-71
2023/07/27 10:36:52;;;;;;;8.48;5.95;;;;;;;-145.63;36.27;37827.59;5062659;28;20032;-69
2023/07/27 10:39:26;;;;;;;7.57;5.97;;;;;;;-145.63;36.96;37854.97;5062731;28;20028;-70
2023/07/27 10:42:04;;;;;;;9.00;6.35;;;;;;;-145.63;37.91;37810.00;5054540;28;20029;-70
2023/07/27 10:44:49;;;;;;;7.10;6.20;;;;;;;-145.63;37.14;37856.94;5058747;28;20075;-72
2023/07/27 10:47:20;;;;;;;8.13;6.03;;;;;;;-145.63;37.52;37829.56;5043368;28;20091;-72
2023/07/27 10:49:49;;;;;;;8.98;6.15;;;;;;;-145.63;37.72;37815.88;5054110;28;20333;-69
2023/07/27 10:52:17;;;;;;;7.88;6.28;;;;;;;-145.63;37.57;37655.56;5060840;28;20122;-70
2023/07/27 10:54:44;;;;;;;7.75;5.90;;;;;;;-145.63;37.53;37858.88;5047292;28;20202;-71
2023/07/27 10:57:12;;;;;;;7.82;6.13;;;;;;;-145.63;37.14;37831.50;5051915;28;20037;-70
2023/07/27 10:59:43;;;;;;;6.90;5.93;;;;;;;-145.63;37.64;37854.97;5054021;28;20045;-68
2023/07/27 11:02:20;;;;;;;8.32;6.55;;;;;;;-145.63;37.57;37843.25;5051063;28;20048;-70
2023/07/27 11:04:49;;;;;;;11.05;6.15;;;;;;;-145.63;37.36;37921.44;5056379;28;20064;-70
2023/07/27 11:07:25;;;;;;;8.95;6.03;;;;;;;-145.63;37.78;37851.06;5056403;28;20041;-72
2023/07/27 11:09:50;;;;;;;6.88;6.18;;;;;;;-145.63;38.02;37849.09;5058011;28;20033;-70
2023/07/27 11:12:16;;;;;;;6.90;5.85;;;;;;;-145.63;38.12;37798.28;5056018;28;20099;-70